sensor_id;sensor_type;location;lat;lon;timestamp;pressure;altitude;pressure_sealevel;temperature;humidity
29045;BME280;16133;49.486;12.176;2022-09-29T00:01:20;95845.97;;;2.21;100.00
29045;BME280;16133;49.486;12.176;2022-09-29T00:03:45;95851.34;;;2.19;100.00
29045;BME280;16133;49.486;12.176;2022-09-29T00:06:13;95853.47;;;2.16;100.00
29045;BME280;16133;49.486;12.176;2022-09-29T00:08:39;95853.00;;;2.12;100.00
29045;BME280;16133;49.486;12.176;2022-09-29T00:11:13;95850.88;;;2.08;100.00
29045;BME280;16133;49.486;12.176;2022-09-29T00:13:39;95854.78;;;2.04;100.00
29045;BME280;16133;49.486;12.176;2022-09-29T00:16:05;95852.19;;;2.04;100.00
29045;BME280;16133;49.486;12.176;2022-09-29T00:18:33;95850.56;;;2.03;100.00
29045;BME280;16133;49.486;12.176;2022-09-29T00:21:07;95861.19;;;2.01;100.00
29045;BME280;16133;49.486;12.176;2022-09-29T00:23:34;95855.47;;;1.98;100.00
29045;BME280;16133;49.486;12.176;2022-09-29T00:26:03;95860.03;;;1.96;100.00
29045;BME280;16133;49.486;12.176;2022-09-29T00:28:30;95866.59;;;1.91;100.00
29045;BME280;16133;49.486;12.176;2022-09-29T00:30:58;95868.69;;;1.88;100.00
29045;BME280;16133;49.486;12.176;2022-09-29T00:33:24;95874.09;;;1.86;100.00
29045;BME280;16133;49.486;12.176;2022-09-29T00:36:02;95872.47;;;1.85;100.00
29045;BME280;16133;49.486;12.176;2022-09-29T00:38:28;95864.94;;;1.82;100.00
29045;BME280;16133;49.486;12.176;2022-09-29T00:40:55;95870.66;;;1.78;100.00
29045;BME280;16133;49.486;12.176;2022-09-29T00:46:13;95867.06;;;1.71;100.00
29045;BME280;16133;49.486;12.176;2022-09-29T00:48:42;95879.31;;;1.70;100.00
29045;BME280;16133;49.486;12.176;2022-09-29T00:51:08;95872.16;;;1.72;100.00
29045;BME280;16133;49.486;12.176;2022-09-29T00:53:33;95862.97;;;1.76;100.00
29045;BME280;16133;49.486;12.176;2022-09-29T00:56:04;95863.16;;;1.83;100.00
29045;BME280;16133;49.486;12.176;2022-09-29T00:58:59;95852.03;;;1.97;100.00
29045;BME280;16133;49.486;12.176;2022-09-29T01:01:29;95831.25;;;2.12;100.00
29045;BME280;16133;49.486;12.176;2022-09-29T01:03:59;95820.44;;;2.23;100.00
29045;BME280;16133;49.486;12.176;2022-09-29T01:06:32;95809.78;;;2.32;100.00
29045;BME280;16133;49.486;12.176;2022-09-29T01:09:00;95801.25;;;2.38;100.00
29045;BME280;16133;49.486;12.176;2022-09-29T01:11:27;95804.34;;;2.42;100.00
29045;BME280;16133;49.486;12.176;2022-09-29T01:13:54;95797.63;;;2.48;100.00
29045;BME280;16133;49.486;12.176;2022-09-29T01:16:22;95785.66;;;2.53;100.00
29045;BME280;16133;49.486;12.176;2022-09-29T01:18:48;95783.19;;;2.60;100.00
29045;BME280;16133;49.486;12.176;2022-09-29T01:21:29;95771.03;;;2.67;100.00
29045;BME280;16133;49.486;12.176;2022-09-29T01:32:23;95780.78;;;2.81;100.00
29045;BME280;16133;49.486;12.176;2022-09-29T01:35:22;95780.44;;;2.84;100.00
29045;BME280;16133;49.486;12.176;2022-09-29T01:43:17;95776.75;;;3.01;100.00
29045;BME280;16133;49.486;12.176;2022-09-29T01:45:52;95776.41;;;3.04;100.00
29045;BME280;16133;49.486;12.176;2022-09-29T01:48:27;95786.53;;;3.07;100.00
29045;BME280;16133;49.486;12.176;2022-09-29T01:50:59;95787.47;;;3.14;100.00
29045;BME280;16133;49.486;12.176;2022-09-29T01:53:34;95776.94;;;3.22;100.00
29045;BME280;16133;49.486;12.176;2022-09-29T01:56:04;95781.16;;;3.31;100.00
29045;BME280;16133;49.486;12.176;2022-09-29T01:58:38;95768.59;;;3.42;100.00
29045;BME280;16133;49.486;12.176;2022-09-29T02:01:09;95765.94;;;3.50;100.00
29045;BME280;16133;49.486;12.176;2022-09-29T02:03:43;95763.25;;;3.58;100.00
29045;BME280;16133;49.486;12.176;2022-09-29T02:06:19;95758.91;;;3.65;100.00
29045;BME280;16133;49.486;12.176;2022-09-29T02:08:52;95763.47;;;3.71;100.00
29045;BME280;16133;49.486;12.176;2022-09-29T02:11:18;95754.25;;;3.75;100.00
29045;BME280;16133;49.486;12.176;2022-09-29T02:13:49;95752.91;;;3.79;100.00
29045;BME280;16133;49.486;12.176;2022-09-29T02:16:17;95749.56;;;3.85;100.00
29045;BME280;16133;49.486;12.176;2022-09-29T02:21:15;95753.09;;;3.92;100.00
29045;BME280;16133;49.486;12.176;2022-09-29T02:23:40;95748.50;;;3.94;100.00
29045;BME280;16133;49.486;12.176;2022-09-29T02:26:10;95751.94;;;3.95;100.00
29045;BME280;16133;49.486;12.176;2022-09-29T02:28:37;95749.66;;;3.92;100.00
29045;BME280;16133;49.486;12.176;2022-09-29T02:31:03;95748.84;;;3.91;100.00
29045;BME280;16133;49.486;12.176;2022-09-29T02:33:29;95750.47;;;3.92;100.00
29045;BME280;16133;49.486;12.176;2022-09-29T02:41:09;95759.91;;;4.01;100.00
29045;BME280;16133;49.486;12.176;2022-09-29T02:46:44;95766.97;;;4.15;100.00
29045;BME280;16133;49.486;12.176;2022-09-29T02:49:33;95767.69;;;4.24;100.00
29045;BME280;16133;49.486;12.176;2022-09-29T02:55:18;95762.53;;;4.30;100.00
29045;BME280;16133;49.486;12.176;2022-09-29T03:00:14;95762.81;;;4.36;100.00
29045;BME280;16133;49.486;12.176;2022-09-29T03:02:41;95763.44;;;4.38;100.00
29045;BME280;16133;49.486;12.176;2022-09-29T03:05:09;95765.72;;;4.41;100.00
29045;BME280;16133;49.486;12.176;2022-09-29T03:07:36;95758.47;;;4.43;100.00
29045;BME280;16133;49.486;12.176;2022-09-29T03:10:03;95760.91;;;4.44;100.00
29045;BME280;16133;49.486;12.176;2022-09-29T03:12:29;95763.72;;;4.43;100.00
29045;BME280;16133;49.486;12.176;2022-09-29T03:14:55;95774.84;;;4.45;100.00
29045;BME280;16133;49.486;12.176;2022-09-29T03:17:20;95772.88;;;4.47;100.00
29045;BME280;16133;49.486;12.176;2022-09-29T03:19:45;95766.09;;;4.52;100.00
29045;BME280;16133;49.486;12.176;2022-09-29T03:22:11;95761.53;;;4.46;100.00
29045;BME280;16133;49.486;12.176;2022-09-29T03:24:36;95763.91;;;4.56;100.00
29045;BME280;16133;49.486;12.176;2022-09-29T03:27:02;95769.78;;;4.58;100.00
29045;BME280;16133;49.486;12.176;2022-09-29T03:29:27;95770.44;;;4.60;100.00
29045;BME280;16133;49.486;12.176;2022-09-29T03:31:53;95775.09;;;4.64;100.00
29045;BME280;16133;49.486;12.176;2022-09-29T03:34:18;95766.88;;;4.67;100.00
29045;BME280;16133;49.486;12.176;2022-09-29T03:36:43;95770.13;;;4.69;100.00
29045;BME280;16133;49.486;12.176;2022-09-29T03:39:09;95775.81;;;4.73;100.00
29045;BME280;16133;49.486;12.176;2022-09-29T03:41:34;95774.47;;;4.77;100.00
29045;BME280;16133;49.486;12.176;2022-09-29T03:44:00;95775.72;;;4.81;100.00
29045;BME280;16133;49.486;12.176;2022-09-29T03:46:25;95774.75;;;4.82;100.00
29045;BME280;16133;49.486;12.176;2022-09-29T03:48:50;95772.56;;;4.86;100.00
29045;BME280;16133;49.486;12.176;2022-09-29T03:51:16;95772.19;;;4.89;100.00
29045;BME280;16133;49.486;12.176;2022-09-29T03:53:41;95773.44;;;4.93;100.00
29045;BME280;16133;49.486;12.176;2022-09-29T03:56:07;95766.56;;;4.92;100.00
29045;BME280;16133;49.486;12.176;2022-09-29T03:58:33;95771.69;;;5.00;100.00
29045;BME280;16133;49.486;12.176;2022-09-29T04:00:58;95775.16;;;5.00;100.00
29045;BME280;16133;49.486;12.176;2022-09-29T04:03:24;95779.22;;;5.03;100.00
29045;BME280;16133;49.486;12.176;2022-09-29T04:05:49;95776.41;;;5.04;100.00
29045;BME280;16133;49.486;12.176;2022-09-29T04:08:15;95784.56;;;5.09;100.00
29045;BME280;16133;49.486;12.176;2022-09-29T04:10:41;95782.56;;;5.11;100.00
29045;BME280;16133;49.486;12.176;2022-09-29T04:13:07;95784.81;;;5.14;100.00
29045;BME280;16133;49.486;12.176;2022-09-29T04:15:33;95780.34;;;5.15;100.00
29045;BME280;16133;49.486;12.176;2022-09-29T04:17:59;95784.25;;;5.19;100.00
29045;BME280;16133;49.486;12.176;2022-09-29T04:20:25;95790.31;;;5.19;100.00
29045;BME280;16133;49.486;12.176;2022-09-29T04:22:51;95794.22;;;5.23;100.00
29045;BME280;16133;49.486;12.176;2022-09-29T04:25:17;95791.22;;;5.26;100.00
29045;BME280;16133;49.486;12.176;2022-09-29T04:27:42;95775.16;;;5.21;100.00
29045;BME280;16133;49.486;12.176;2022-09-29T04:30:08;95784.84;;;5.36;100.00
29045;BME280;16133;49.486;12.176;2022-09-29T04:32:34;95784.47;;;5.39;100.00
29045;BME280;16133;49.486;12.176;2022-09-29T04:34:59;95789.16;;;5.43;100.00
29045;BME280;16133;49.486;12.176;2022-09-29T04:37:25;95792.84;;;5.49;100.00
29045;BME280;16133;49.486;12.176;2022-09-29T04:39:50;95781.16;;;5.51;100.00
29045;BME280;16133;49.486;12.176;2022-09-29T04:42:19;95785.22;;;5.54;100.00
29045;BME280;16133;49.486;12.176;2022-09-29T04:44:45;95784.22;;;5.55;100.00
29045;BME280;16133;49.486;12.176;2022-09-29T04:47:11;95782.84;;;5.59;100.00
29045;BME280;16133;49.486;12.176;2022-09-29T04:49:36;95787.72;;;5.62;100.00
29045;BME280;16133;49.486;12.176;2022-09-29T04:52:02;95788.97;;;5.66;100.00
29045;BME280;16133;49.486;12.176;2022-09-29T04:54:32;95790.22;;;5.70;100.00
29045;BME280;16133;49.486;12.176;2022-09-29T04:56:57;95789.84;;;5.73;100.00
29045;BME280;16133;49.486;12.176;2022-09-29T04:59:23;95790.28;;;5.76;100.00
29045;BME280;16133;49.486;12.176;2022-09-29T05:01:49;95787.09;;;5.81;100.00
29045;BME280;16133;49.486;12.176;2022-09-29T05:04:14;95788.34;;;5.85;100.00
29045;BME280;16133;49.486;12.176;2022-09-29T05:06:40;95784.34;;;5.89;100.00
29045;BME280;16133;49.486;12.176;2022-09-29T05:09:05;95775.06;;;5.93;100.00
29045;BME280;16133;49.486;12.176;2022-09-29T05:11:31;95781.59;;;5.97;100.00
29045;BME280;16133;49.486;12.176;2022-09-29T05:13:56;95776.75;;;6.01;100.00
29045;BME280;16133;49.486;12.176;2022-09-29T05:16:23;95776.19;;;6.05;100.00
29045;BME280;16133;49.486;12.176;2022-09-29T05:18:49;95775.41;;;6.11;100.00
29045;BME280;16133;49.486;12.176;2022-09-29T05:21:14;95759.44;;;6.13;100.00
29045;BME280;16133;49.486;12.176;2022-09-29T05:23:40;95764.91;;;6.18;100.00
29045;BME280;16133;49.486;12.176;2022-09-29T05:26:07;95759.06;;;6.22;100.00
29045;BME280;16133;49.486;12.176;2022-09-29T05:28:33;95756.88;;;6.26;100.00
29045;BME280;16133;49.486;12.176;2022-09-29T05:31:05;95754.66;;;6.30;100.00
29045;BME280;16133;49.486;12.176;2022-09-29T05:33:31;95751.25;;;6.36;100.00
29045;BME280;16133;49.486;12.176;2022-09-29T05:35:57;95754.09;;;6.41;100.00
29045;BME280;16133;49.486;12.176;2022-09-29T05:38:23;95751.13;;;6.44;100.00
29045;BME280;16133;49.486;12.176;2022-09-29T05:40:52;95750.50;;;6.48;100.00
29045;BME280;16133;49.486;12.176;2022-09-29T05:43:18;95762.09;;;6.54;100.00
29045;BME280;16133;49.486;12.176;2022-09-29T05:45:44;95766.97;;;6.57;100.00
29045;BME280;16133;49.486;12.176;2022-09-29T05:48:09;95768.22;;;6.61;100.00
29045;BME280;16133;49.486;12.176;2022-09-29T05:50:35;95772.28;;;6.63;100.00
29045;BME280;16133;49.486;12.176;2022-09-29T05:53:09;95780.00;;;6.65;100.00
29045;BME280;16133;49.486;12.176;2022-09-29T05:55:38;95776.34;;;6.66;100.00
29045;BME280;16133;49.486;12.176;2022-09-29T05:58:04;95781.63;;;6.66;100.00
29045;BME280;16133;49.486;12.176;2022-09-29T06:00:31;95790.13;;;6.68;100.00
29045;BME280;16133;49.486;12.176;2022-09-29T06:03:00;95795.22;;;6.69;100.00
29045;BME280;16133;49.486;12.176;2022-09-29T06:05:27;95801.09;;;6.71;100.00
29045;BME280;16133;49.486;12.176;2022-09-29T06:07:53;95817.34;;;6.75;100.00
29045;BME280;16133;49.486;12.176;2022-09-29T06:10:19;95823.66;;;6.74;100.00
29045;BME280;16133;49.486;12.176;2022-09-29T06:12:44;95822.00;;;6.73;100.00
29045;BME280;16133;49.486;12.176;2022-09-29T06:15:10;95829.50;;;6.69;100.00
29045;BME280;16133;49.486;12.176;2022-09-29T06:17:36;95833.97;;;6.76;100.00
29045;BME280;16133;49.486;12.176;2022-09-29T06:20:02;95825.03;;;6.70;100.00
29045;BME280;16133;49.486;12.176;2022-09-29T06:22:28;95831.81;;;6.86;100.00
29045;BME280;16133;49.486;12.176;2022-09-29T06:24:53;95813.63;;;6.97;100.00
29045;BME280;16133;49.486;12.176;2022-09-29T06:27:19;95807.78;;;7.08;100.00
29045;BME280;16133;49.486;12.176;2022-09-29T06:29:45;95802.72;;;7.13;100.00
29045;BME280;16133;49.486;12.176;2022-09-29T06:32:10;95811.84;;;7.17;100.00
29045;BME280;16133;49.486;12.176;2022-09-29T06:34:35;95811.03;;;7.10;100.00
29045;BME280;16133;49.486;12.176;2022-09-29T06:37:21;95824.88;;;7.26;100.00
29045;BME280;16133;49.486;12.176;2022-09-29T06:40:05;95826.13;;;7.36;100.00
29045;BME280;16133;49.486;12.176;2022-09-29T06:42:32;95821.50;;;7.45;100.00
29045;BME280;16133;49.486;12.176;2022-09-29T06:44:58;95831.28;;;7.51;100.00
29045;BME280;16133;49.486;12.176;2022-09-29T06:47:23;95810.53;;;7.41;100.00
29045;BME280;16133;49.486;12.176;2022-09-29T06:49:49;95836.34;;;7.59;100.00
29045;BME280;16133;49.486;12.176;2022-09-29T06:52:15;95842.47;;;7.66;100.00
29045;BME280;16133;49.486;12.176;2022-09-29T06:54:41;95833.16;;;7.77;100.00
29045;BME280;16133;49.486;12.176;2022-09-29T06:57:06;95839.25;;;7.90;100.00
29045;BME280;16133;49.486;12.176;2022-09-29T06:59:31;95829.72;;;7.96;100.00
29045;BME280;16133;49.486;12.176;2022-09-29T07:01:57;95831.56;;;8.08;100.00
29045;BME280;16133;49.486;12.176;2022-09-29T07:04:23;95835.22;;;8.27;100.00
29045;BME280;16133;49.486;12.176;2022-09-29T07:06:49;95837.91;;;8.34;100.00
29045;BME280;16133;49.486;12.176;2022-09-29T07:09:15;95853.75;;;8.34;100.00
29045;BME280;16133;49.486;12.176;2022-09-29T07:11:42;95859.03;;;8.34;100.00
29045;BME280;16133;49.486;12.176;2022-09-29T07:14:14;95875.91;;;8.33;100.00
29045;BME280;16133;49.486;12.176;2022-09-29T07:16:40;95902.53;;;8.38;100.00
29045;BME280;16133;49.486;12.176;2022-09-29T07:19:06;95915.34;;;8.41;100.00
29045;BME280;16133;49.486;12.176;2022-09-29T07:21:31;95919.44;;;8.50;100.00
29045;BME280;16133;49.486;12.176;2022-09-29T07:23:56;95921.88;;;8.58;100.00
29045;BME280;16133;49.486;12.176;2022-09-29T07:26:22;95919.03;;;8.66;100.00
29045;BME280;16133;49.486;12.176;2022-09-29T07:28:47;95928.16;;;8.77;100.00
29045;BME280;16133;49.486;12.176;2022-09-29T07:31:15;95927.31;;;8.89;100.00
29045;BME280;16133;49.486;12.176;2022-09-29T07:33:42;95930.59;;;9.04;100.00
29045;BME280;16133;49.486;12.176;2022-09-29T07:36:08;95937.69;;;9.24;100.00
29045;BME280;16133;49.486;12.176;2022-09-29T07:38:34;95916.44;;;9.43;100.00
29045;BME280;16133;49.486;12.176;2022-09-29T07:41:05;95902.09;;;9.64;100.00
29045;BME280;16133;49.486;12.176;2022-09-29T07:43:31;95903.22;;;9.81;100.00
29045;BME280;16133;49.486;12.176;2022-09-29T07:45:56;95885.06;;;9.91;100.00
29045;BME280;16133;49.486;12.176;2022-09-29T07:48:22;95877.56;;;10.20;100.00
29045;BME280;16133;49.486;12.176;2022-09-29T07:50:47;95872.94;;;10.40;100.00
29045;BME280;16133;49.486;12.176;2022-09-29T07:53:13;95871.22;;;10.52;100.00
29045;BME280;16133;49.486;12.176;2022-09-29T07:55:39;95885.97;;;10.66;100.00
29045;BME280;16133;49.486;12.176;2022-09-29T07:58:05;95902.00;;;10.78;100.00
29045;BME280;16133;49.486;12.176;2022-09-29T08:00:31;95934.00;;;10.83;100.00
29045;BME280;16133;49.486;12.176;2022-09-29T08:03:04;95984.25;;;11.02;100.00
29045;BME280;16133;49.486;12.176;2022-09-29T08:05:32;96015.78;;;11.17;100.00
29045;BME280;16133;49.486;12.176;2022-09-29T08:08:07;96023.09;;;11.22;100.00
29045;BME280;16133;49.486;12.176;2022-09-29T08:10:32;96030.94;;;11.35;100.00
29045;BME280;16133;49.486;12.176;2022-09-29T08:12:58;96046.34;;;11.51;100.00
29045;BME280;16133;49.486;12.176;2022-09-29T08:15:24;96048.53;;;11.54;100.00
29045;BME280;16133;49.486;12.176;2022-09-29T08:17:53;96049.16;;;11.56;100.00
29045;BME280;16133;49.486;12.176;2022-09-29T08:20:20;96049.53;;;11.60;100.00
29045;BME280;16133;49.486;12.176;2022-09-29T08:22:46;96060.09;;;11.66;100.00
29045;BME280;16133;49.486;12.176;2022-09-29T08:25:13;96062.28;;;11.76;100.00
29045;BME280;16133;49.486;12.176;2022-09-29T08:27:38;96060.72;;;11.86;100.00
29045;BME280;16133;49.486;12.176;2022-09-29T08:30:04;96061.63;;;11.98;100.00
29045;BME280;16133;49.486;12.176;2022-09-29T08:32:30;96053.38;;;12.07;98.45
29045;BME280;16133;49.486;12.176;2022-09-29T08:34:55;96061.47;;;12.12;96.44
29045;BME280;16133;49.486;12.176;2022-09-29T08:37:21;96069.41;;;12.18;95.02
29045;BME280;16133;49.486;12.176;2022-09-29T08:39:46;96069.97;;;12.20;94.79
29045;BME280;16133;49.486;12.176;2022-09-29T08:45:00;96076.66;;;12.59;95.45
29045;BME280;16133;49.486;12.176;2022-09-29T08:47:30;96085.28;;;12.73;91.90
29045;BME280;16133;49.486;12.176;2022-09-29T08:50:10;96089.03;;;12.83;91.66
29045;BME280;16133;49.486;12.176;2022-09-29T08:52:51;96080.91;;;12.78;91.34
29045;BME280;16133;49.486;12.176;2022-09-29T08:57:45;96089.31;;;12.27;92.50
29045;BME280;16133;49.486;12.176;2022-09-29T09:00:13;96100.50;;;12.00;93.41
29045;BME280;16133;49.486;12.176;2022-09-29T09:03:01;96095.19;;;11.75;94.73
29045;BME280;16133;49.486;12.176;2022-09-29T09:08:42;96104.13;;;11.56;97.25
29045;BME280;16133;49.486;12.176;2022-09-29T09:18:56;96101.31;;;11.75;97.30
29045;BME280;16133;49.486;12.176;2022-09-29T09:26:42;96104.31;;;12.40;94.66
29045;BME280;16133;49.486;12.176;2022-09-29T09:31:42;96118.03;;;12.73;91.54
29045;BME280;16133;49.486;12.176;2022-09-29T09:34:17;96107.22;;;12.86;90.44
29045;BME280;16133;49.486;12.176;2022-09-29T09:36:59;96105.09;;;13.07;89.90
29045;BME280;16133;49.486;12.176;2022-09-29T09:39:36;96111.22;;;13.25;88.78
29045;BME280;16133;49.486;12.176;2022-09-29T09:42:13;96097.00;;;13.55;87.27
29045;BME280;16133;49.486;12.176;2022-09-29T09:44:45;96095.88;;;13.85;85.11
29045;BME280;16133;49.486;12.176;2022-09-29T09:47:31;96099.34;;;14.21;83.83
29045;BME280;16133;49.486;12.176;2022-09-29T09:50:12;96090.38;;;14.50;79.88
29045;BME280;16133;49.486;12.176;2022-09-29T09:53:02;96086.59;;;14.74;78.41
29045;BME280;16133;49.486;12.176;2022-09-29T09:55:29;96082.03;;;14.87;76.71
29045;BME280;16133;49.486;12.176;2022-09-29T10:00:42;96091.47;;;15.06;75.88
29045;BME280;16133;49.486;12.176;2022-09-29T10:03:09;96091.47;;;15.22;74.95
29045;BME280;16133;49.486;12.176;2022-09-29T10:05:46;96080.66;;;15.29;73.68
29045;BME280;16133;49.486;12.176;2022-09-29T10:08:35;96088.41;;;15.30;71.93
29045;BME280;16133;49.486;12.176;2022-09-29T10:13:44;96089.13;;;15.26;71.27
29045;BME280;16133;49.486;12.176;2022-09-29T10:16:20;96090.06;;;15.48;71.20
29045;BME280;16133;49.486;12.176;2022-09-29T10:18:49;96080.50;;;15.69;72.28
29045;BME280;16133;49.486;12.176;2022-09-29T10:23:52;96091.03;;;15.92;67.72
29045;BME280;16133;49.486;12.176;2022-09-29T10:26:24;96083.31;;;15.96;66.97
29045;BME280;16133;49.486;12.176;2022-09-29T10:32:08;96091.22;;;16.24;66.22
29045;BME280;16133;49.486;12.176;2022-09-29T10:34:43;96093.22;;;16.34;66.66
29045;BME280;16133;49.486;12.176;2022-09-29T10:39:44;96086.03;;;16.17;65.88
29045;BME280;16133;49.486;12.176;2022-09-29T10:44:53;96087.13;;;16.16;64.86
29045;BME280;16133;49.486;12.176;2022-09-29T10:47:21;96085.81;;;16.02;63.07
29045;BME280;16133;49.486;12.176;2022-09-29T10:49:46;96083.16;;;16.02;64.10
29045;BME280;16133;49.486;12.176;2022-09-29T10:52:27;96082.50;;;16.12;64.98
29045;BME280;16133;49.486;12.176;2022-09-29T10:55:00;96085.03;;;16.02;64.59
29045;BME280;16133;49.486;12.176;2022-09-29T10:57:31;96079.84;;;15.95;63.67
29045;BME280;16133;49.486;12.176;2022-09-29T10:59:57;96086.09;;;16.01;64.24
29045;BME280;16133;49.486;12.176;2022-09-29T11:02:34;96085.03;;;16.02;64.63
29045;BME280;16133;49.486;12.176;2022-09-29T11:05:14;96103.41;;;16.15;65.41
29045;BME280;16133;49.486;12.176;2022-09-29T11:07:46;96095.53;;;16.25;65.45
29045;BME280;16133;49.486;12.176;2022-09-29T11:10:34;96088.50;;;16.41;65.92
29045;BME280;16133;49.486;12.176;2022-09-29T11:15:48;96083.75;;;16.64;62.50
29045;BME280;16133;49.486;12.176;2022-09-29T11:18:34;96083.88;;;16.75;60.53
29045;BME280;16133;49.486;12.176;2022-09-29T11:40:23;96088.25;;;17.34;57.96
29045;BME280;16133;49.486;12.176;2022-09-29T11:45:27;96087.44;;;17.34;56.68
29045;BME280;16133;49.486;12.176;2022-09-29T11:56:46;96076.66;;;17.55;58.71
29045;BME280;16133;49.486;12.176;2022-09-29T11:59:18;96071.34;;;17.60;58.80
29045;BME280;16133;49.486;12.176;2022-09-29T12:04:54;96070.19;;;17.56;57.31
29045;BME280;16133;49.486;12.176;2022-09-29T12:10:16;96074.09;;;17.12;58.22
29045;BME280;16133;49.486;12.176;2022-09-29T12:15:41;96078.38;;;16.04;60.51
29045;BME280;16133;49.486;12.176;2022-09-29T12:18:15;96075.44;;;15.67;62.22
29045;BME280;16133;49.486;12.176;2022-09-29T12:20:44;96078.31;;;15.32;62.32
29045;BME280;16133;49.486;12.176;2022-09-29T12:23:13;96075.59;;;15.16;63.25
29045;BME280;16133;49.486;12.176;2022-09-29T12:25:51;96075.09;;;15.02;62.66
29045;BME280;16133;49.486;12.176;2022-09-29T12:28:21;96071.41;;;14.92;62.58
29045;BME280;16133;49.486;12.176;2022-09-29T12:31:07;96068.19;;;14.90;64.31
29045;BME280;16133;49.486;12.176;2022-09-29T12:39:23;96074.75;;;14.99;62.70
29045;BME280;16133;49.486;12.176;2022-09-29T12:41:58;96073.03;;;14.93;62.55
29045;BME280;16133;49.486;12.176;2022-09-29T12:44:43;96075.03;;;14.86;62.61
29045;BME280;16133;49.486;12.176;2022-09-29T12:47:38;96076.56;;;14.81;63.06
29045;BME280;16133;49.486;12.176;2022-09-29T12:50:16;96072.75;;;14.77;63.24
29045;BME280;16133;49.486;12.176;2022-09-29T12:52:53;96077.75;;;14.74;64.41
29045;BME280;16133;49.486;12.176;2022-09-29T12:55:30;96079.84;;;14.72;65.32
29045;BME280;16133;49.486;12.176;2022-09-29T12:58:05;96080.47;;;14.62;65.90
29045;BME280;16133;49.486;12.176;2022-09-29T13:00:36;96075.94;;;14.63;65.81
29045;BME280;16133;49.486;12.176;2022-09-29T13:06:10;96066.31;;;14.90;66.52
29045;BME280;16133;49.486;12.176;2022-09-29T13:09:04;96071.06;;;15.16;66.07
29045;BME280;16133;49.486;12.176;2022-09-29T13:14:23;96070.47;;;15.76;62.66
29045;BME280;16133;49.486;12.176;2022-09-29T13:17:16;96068.81;;;16.08;62.94
29045;BME280;16133;49.486;12.176;2022-09-29T13:27:53;96061.91;;;16.56;60.33
29045;BME280;16133;49.486;12.176;2022-09-29T13:30:26;96059.69;;;16.69;59.58
29045;BME280;16133;49.486;12.176;2022-09-29T13:35:22;96064.75;;;16.66;58.16
29045;BME280;16133;49.486;12.176;2022-09-29T13:37:52;96056.66;;;16.61;58.34
29045;BME280;16133;49.486;12.176;2022-09-29T13:40:21;96061.19;;;16.60;59.80
29045;BME280;16133;49.486;12.176;2022-09-29T13:42:48;96061.19;;;16.60;59.47
29045;BME280;16133;49.486;12.176;2022-09-29T13:47:49;96073.03;;;16.64;60.40
29045;BME280;16133;49.486;12.176;2022-09-29T13:55:49;96062.75;;;16.56;57.94
29045;BME280;16133;49.486;12.176;2022-09-29T13:58:24;96070.72;;;16.51;59.59
29045;BME280;16133;49.486;12.176;2022-09-29T14:00:51;96064.22;;;16.47;59.27
29045;BME280;16133;49.486;12.176;2022-09-29T14:03:27;96069.28;;;16.44;59.84
29045;BME280;16133;49.486;12.176;2022-09-29T14:06:21;96063.03;;;16.38;60.50
29045;BME280;16133;49.486;12.176;2022-09-29T14:09:25;96067.56;;;16.38;59.75
29045;BME280;16133;49.486;12.176;2022-09-29T14:11:48;96073.50;;;16.40;59.57
29045;BME280;16133;49.486;12.176;2022-09-29T14:14:29;96075.50;;;16.49;59.03
29045;BME280;16133;49.486;12.176;2022-09-29T14:22:47;96078.66;;;16.63;57.88
29045;BME280;16133;49.486;12.176;2022-09-29T14:24:51;96079.41;;;16.58;59.42
29045;BME280;16133;49.486;12.176;2022-09-29T14:35:32;96092.38;;;16.50;59.81
29045;BME280;16133;49.486;12.176;2022-09-29T14:38:25;96086.09;;;16.39;59.28
29045;BME280;16133;49.486;12.176;2022-09-29T14:41:25;96096.00;;;16.22;60.25
29045;BME280;16133;49.486;12.176;2022-09-29T14:43:55;96092.31;;;16.06;59.87
29045;BME280;16133;49.486;12.176;2022-09-29T14:52:24;96099.06;;;15.92;61.19
29045;BME280;16133;49.486;12.176;2022-09-29T14:55:16;96105.22;;;15.93;61.66
29045;BME280;16133;49.486;12.176;2022-09-29T15:03:28;96115.38;;;15.74;60.73
29045;BME280;16133;49.486;12.176;2022-09-29T15:06:21;96114.88;;;15.60;61.07
29045;BME280;16133;49.486;12.176;2022-09-29T15:08:59;96124.22;;;15.46;62.78
29045;BME280;16133;49.486;12.176;2022-09-29T15:13:55;96127.78;;;15.35;64.10
29045;BME280;16133;49.486;12.176;2022-09-29T15:24:56;96145.22;;;15.09;66.77
29045;BME280;16133;49.486;12.176;2022-09-29T15:27:25;96149.31;;;15.00;67.79
29045;BME280;16133;49.486;12.176;2022-09-29T15:29:54;96152.28;;;14.87;66.74
29045;BME280;16133;49.486;12.176;2022-09-29T15:32:26;96154.38;;;14.73;67.67
29045;BME280;16133;49.486;12.176;2022-09-29T15:34:53;96150.69;;;14.63;68.83
29045;BME280;16133;49.486;12.176;2022-09-29T15:37:24;96150.38;;;14.48;69.25
29045;BME280;16133;49.486;12.176;2022-09-29T15:39:51;96154.09;;;14.35;70.53
29045;BME280;16133;49.486;12.176;2022-09-29T15:42:20;96161.25;;;14.23;71.39
29045;BME280;16133;49.486;12.176;2022-09-29T15:44:57;96158.50;;;14.06;72.49
29045;BME280;16133;49.486;12.176;2022-09-29T15:47:41;96163.69;;;13.89;73.54
29045;BME280;16133;49.486;12.176;2022-09-29T15:50:19;96174.88;;;13.68;74.61
29045;BME280;16133;49.486;12.176;2022-09-29T15:52:45;96175.66;;;13.46;75.57
29045;BME280;16133;49.486;12.176;2022-09-29T15:55:17;96181.50;;;13.24;77.12
29045;BME280;16133;49.486;12.176;2022-09-29T15:57:49;96179.06;;;13.05;78.40
29045;BME280;16133;49.486;12.176;2022-09-29T16:03:05;96175.28;;;12.64;81.73
29045;BME280;16133;49.486;12.176;2022-09-29T16:05:36;96176.88;;;12.47;83.02
29045;BME280;16133;49.486;12.176;2022-09-29T16:08:19;96190.53;;;12.32;84.63
29045;BME280;16133;49.486;12.176;2022-09-29T16:13:21;96192.66;;;12.06;87.42